Terminal Aerodrome Forecast
Issued by NWS Mt. Holly, NJ

Current Version | Previous Version | Text Only | Print | Product List | Glossary On
Versions: 1 2 3 4 5 6 7 8 9 10 11 12 13 14 15 16 17 18 19
000
FTUS41 KPHI 291509 AAA
TAFILG
TAF AMD
KILG 291509Z 2915/3012 07017G28KT P6SM OVC011
      TEMPO 2917/2921 5SM -RADZ BKN007 OVC015
     FM292100 07015G27KT 3SM -SHRA OVC006=

USA.gov is the U.S. government's official web portal to all federal, state and local government web resources and services.